sim
Sign-in with your pilot id or email,
or register
Callsign
Passwort

Schedule Details

Flight Number: DLH2045
Departure: Berlin Tegel Airport (EDDT) at 17:00
Arrival: Munich Airport (EDDM) at 18:10
Route: Lufthansa Passenger Schedule. Enter filed route here before submitting Pirep.

Weather Information
Getting current METAR information for EDDT 210650Z 08004KT 020V130 CAVOK 13/07 Q1019 NOSIG
Getting current METAR information for EDDM 210650Z VRB01KT CAVOK 11/11 Q1017 BECMG 09005KT

Schedule Frequency

Route Map